| time (UTC) | temp C | wind direction | speed KPH | gust KPH | rain 1hr cm | rain 24hr cm | rain mn cm | humidity % | barometer mb |
| 20260510190209 | 27 | 150 | 1.6 | 4.8 | 0.00 | 0.00 | 0.00 | 28 | 1018.9 |
| 20260510185306 | 28 | 161 | 4.8 | 6.4 | 0.00 | 0.00 | 0.00 | 27 | 1019.0 |
| 20260510182409 | 28 | 305 | 8.0 | 11.3 | 0.00 | 0.00 | 0.00 | 28 | 1019.1 |
| 20260510181506 | 27 | 165 | 3.2 | 8.0 | 0.00 | 0.00 | 0.00 | 28 | 1019.1 |
| 20260510180507 | 27 | 186 | 8.0 | 11.3 | 0.00 | 0.00 | 0.00 | 27 | 1019.2 |
| 20260510175523 | 27 | 202 | 9.7 | 11.3 | 0.00 | 0.00 | 0.00 | 29 | 1019.4 |
| 20260510174507 | 27 | 61 | 4.8 | 9.7 | 0.00 | 0.00 | 0.00 | 31 | 1019.5 |
| 20260510173506 | 27 | 269 | 3.2 | 6.4 | 0.00 | 0.00 | 0.00 | 31 | 1019.7 |
| 20260510172506 | 27 | 69 | 3.2 | 6.4 | 0.00 | 0.00 | 0.00 | 31 | 1019.8 |
| 20260510171508 | 27 | 333 | 4.8 | 8.0 | 0.00 | 0.00 | 0.00 | 31 | 1019.8 |
| 20260510171406 | 27 | 24 | 3.2 | 4.8 | 0.00 | 0.00 | 0.00 | 31 | 1019.8 |
| 20260510170505 | 26 | 292 | 0.0 | 0.0 | 0.00 | 0.00 | 0.00 | 30 | 1019.7 |
| 20260510165507 | 26 | 308 | 3.2 | 8.0 | 0.00 | 0.00 | 0.00 | 31 | 1019.9 |
| 20260510163507 | 26 | 284 | 1.6 | 4.8 | 0.00 | 0.00 | 0.00 | 29 | 1019.9 |
| 20260510162606 | 26 | 195 | 1.6 | 4.8 | 0.00 | 0.00 | 0.00 | 34 | 1020.1 |
| 20260510161705 | 26 | 40 | 6.4 | 9.7 | 0.00 | 0.00 | 0.00 | 36 | 1020.0 |
| 20260510161623 | 26 | 3 | 6.4 | 9.7 | 0.00 | 0.00 | 0.00 | 36 | 1020.0 |
| 20260510160708 | 26 | 77 | 0.0 | 3.2 | 0.00 | 0.00 | 0.00 | 37 | 1020.0 |
| 20260510155707 | 26 | 4 | 3.2 | 8.0 | 0.00 | 0.00 | 0.00 | 39 | 1020.0 |
| 20260510154724 | 26 | 15 | 4.8 | 9.7 | 0.00 | 0.00 | 0.00 | 40 | 1020.1 |
| 20260510153706 | 25 | 36 | 4.8 | 6.4 | 0.00 | 0.00 | 0.00 | 40 | 1020.2 |
| 20260510152721 | 25 | 360 | 3.2 | 6.4 | 0.00 | 0.00 | 0.00 | 39 | 1020.2 |
| 20260510151707 | 25 | 246 | 1.6 | 4.8 | 0.00 | 0.00 | 0.00 | 42 | 1020.3 |
| 20260510150805 | 25 | 30 | 1.6 | 4.8 | 0.00 | 0.00 | 0.00 | 41 | 1020.3 |
| 20260510145808 | 25 | 356 | 4.8 | 8.0 | 0.00 | 0.00 | 0.00 | 45 | 1020.1 |
| 20260510142822 | 22 | 172 | 3.2 | 6.4 | 0.00 | 0.00 | 0.00 | 52 | 1020.3 |
| 20260510141905 | 23 | 105 | 4.8 | 6.4 | 0.00 | 0.00 | 0.00 | 52 | 1020.2 |
| 20260510140906 | 23 | 270 | 1.6 | 3.2 | 0.00 | 0.00 | 0.00 | 54 | 1020.4 |
| 20260510135907 | 23 | 315 | 1.6 | 4.8 | 0.00 | 0.00 | 0.00 | 56 | 1020.3 |
| 20260510134907 | 22 | 339 | 1.6 | 3.2 | 0.00 | 0.00 | 0.00 | 57 | 1020.3 |
| 20260510133905 | 22 | 315 | 0.0 | 3.2 | 0.00 | 0.00 | 0.00 | 57 | 1020.4 |
| 20260510132921 | 21 | 333 | 1.6 | 4.8 | 0.00 | 0.00 | 0.00 | 61 | 1020.3 |
| 20260510131904 | 21 | 314 | 3.2 | 4.8 | 0.00 | 0.00 | 0.00 | 64 | 1020.2 |
| 20260510130907 | 21 | 270 | 0.0 | 3.2 | 0.00 | 0.00 | 0.00 | 66 | 1020.4 |
| 20260510124907 | 19 | 337 | 0.0 | 0.0 | 0.00 | 0.00 | 0.00 | 74 | 1020.2 |
| 20260510123004 | 18 | 292 | 0.0 | 1.6 | 0.00 | 0.00 | 0.00 | 92 | 1020.1 |
| 20260510122005 | 17 | 292 | 0.0 | 0.0 | 0.00 | 0.00 | 0.00 | 93 | 1019.9 |
| 20260510121007 | 16 | 360 | 0.0 | 0.0 | 0.00 | 0.00 | 0.00 | 94 | 1019.8 |
| 20260510120007 | 16 | 292 | 0.0 | 0.0 | 0.00 | 0.00 | 0.00 | 93 | 1019.5 |
| 20260510112023 | 12 | 292 | 0.0 | 0.0 | 0.00 | 0.00 | 0.00 | 94 | 1018.9 |
| 20260510111007 | 12 | 292 | 0.0 | 0.0 | 0.00 | 0.00 | 0.00 | 94 | 1018.8 |
| 20260510110105 | 12 | 292 | 0.0 | 0.0 | 0.00 | 0.00 | 0.00 | 94 | 1018.4 |
| 20260510105122 | 12 | 292 | 0.0 | 0.0 | 0.00 | 0.00 | 0.00 | 93 | 1018.3 |
| 20260510104204 | 12 | 292 | 0.0 | 0.0 | 0.00 | 0.00 | 0.00 | 93 | 1018.3 |
| 20260510103205 | 12 | 292 | 0.0 | 0.0 | 0.00 | 0.00 | 0.00 | 93 | 1017.9 |
| 20260510102306 | 12 | 292 | 0.0 | 0.0 | 0.00 | 0.00 | 0.00 | 92 | 1017.8 |
| 20260510101321 | 12 | 292 | 0.0 | 0.0 | 0.00 | 0.00 | 0.00 | 93 | 1017.7 |
| 20260510100407 | 12 | 292 | 0.0 | 0.0 | 0.00 | 0.00 | 0.00 | 92 | 1017.7 |
| 20260510092508 | 13 | 292 | 0.0 | 0.0 | 0.00 | 0.00 | 0.00 | 92 | 1017.4 |
| 20260510091507 | 13 | 292 | 0.0 | 0.0 | 0.00 | 0.00 | 0.00 | 92 | 1017.2 |
| 20260510090506 | 13 | 292 | 0.0 | 0.0 | 0.00 | 0.00 | 0.00 | 92 | 1017.2 |
| 20260510085507 | 13 | 292 | 0.0 | 0.0 | 0.00 | 0.00 | 0.00 | 92 | 1017.4 |
| 20260510084522 | 13 | 292 | 0.0 | 0.0 | 0.00 | 0.00 | 0.00 | 92 | 1017.1 |
| 20260510083621 | 13 | 292 | 0.0 | 0.0 | 0.00 | 0.00 | 0.00 | 92 | 1016.8 |
| 20260510082707 | 13 | 292 | 0.0 | 0.0 | 0.00 | 0.00 | 0.00 | 92 | 1016.8 |
| 20260510081707 | 13 | 292 | 0.0 | 0.0 | 0.00 | 0.00 | 0.00 | 92 | 1016.7 |
| 20260510080723 | 13 | 292 | 0.0 | 0.0 | 0.00 | 0.00 | 0.00 | 91 | 1016.6 |
| 20260510075808 | 14 | 292 | 0.0 | 0.0 | 0.00 | 0.00 | 0.00 | 91 | 1016.5 |
| 20260510074906 | 14 | 292 | 0.0 | 0.0 | 0.00 | 0.00 | 0.00 | 91 | 1016.4 |
| 20260510074004 | 14 | 292 | 0.0 | 0.0 | 0.00 | 0.00 | 0.00 | 90 | 1016.3 |
| 20260510073007 | 14 | 292 | 0.0 | 0.0 | 0.00 | 0.00 | 0.00 | 90 | 1016.3 |
| 20260510072006 | 14 | 292 | 0.0 | 0.0 | 0.00 | 0.00 | 0.00 | 90 | 1016.1 |
| 20260510071005 | 14 | 292 | 0.0 | 0.0 | 0.00 | 0.00 | 0.00 | 90 | 1016.2 |
| 20260510070104 | 14 | 292 | 0.0 | 0.0 | 0.00 | 0.00 | 0.00 | 89 | 1016.3 |
| 20260510065105 | 15 | 292 | 0.0 | 0.0 | 0.00 | 0.00 | 0.00 | 88 | 1016.3 |
| 20260510064107 | 15 | 292 | 0.0 | 0.0 | 0.00 | 0.00 | 0.00 | 89 | 1016.2 |
| 20260510063204 | 15 | 292 | 0.0 | 0.0 | 0.00 | 0.00 | 0.00 | 89 | 1016.3 |
| 20260510062206 | 15 | 292 | 0.0 | 0.0 | 0.00 | 0.00 | 0.00 | 89 | 1016.2 |
| 20260510060206 | 16 | 292 | 0.0 | 0.0 | 0.00 | 0.00 | 0.00 | 88 | 1016.4 |
| 20260510054221 | 16 | 275 | 0.0 | 1.6 | 0.00 | 0.00 | 0.00 | 88 | 1016.3 |
| 20260510053207 | 16 | 202 | 0.0 | 0.0 | 0.00 | 0.00 | 0.00 | 87 | 1016.4 |
| 20260510052206 | 16 | 225 | 1.6 | 3.2 | 0.00 | 0.00 | 0.00 | 86 | 1016.4 |
| 20260510051305 | 16 | 202 | 0.0 | 0.0 | 0.00 | 0.00 | 0.00 | 87 | 1016.6 |
| 20260510050305 | 16 | 180 | 3.2 | 3.2 | 0.00 | 0.00 | 0.00 | 87 | 1016.4 |
| 20260510044405 | 16 | 221 | 1.6 | 3.2 | 0.00 | 0.00 | 0.00 | 86 | 1016.5 |
| 20260510043406 | 16 | 202 | 3.2 | 3.2 | 0.00 | 0.00 | 0.00 | 85 | 1016.6 |
| 20260510042405 | 16 | 202 | 0.0 | 1.6 | 0.00 | 0.00 | 0.00 | 84 | 1016.6 |
| 20260510041505 | 17 | 202 | 0.0 | 1.6 | 0.00 | 0.00 | 0.00 | 85 | 1016.6 |
| 20260510040505 | 17 | 202 | 3.2 | 3.2 | 0.00 | 0.00 | 0.00 | 84 | 1016.6 |
| 20260510035505 | 17 | 202 | 1.6 | 1.6 | 0.00 | 0.00 | 0.00 | 84 | 1016.6 |
| 20260510034505 | 17 | 202 | 0.0 | 0.0 | 0.00 | 0.00 | 0.00 | 84 | 1016.6 |
| 20260510033506 | 17 | 202 | 0.0 | 3.2 | 0.00 | 0.00 | 0.00 | 83 | 1016.6 |
| 20260510032505 | 17 | 202 | 0.0 | 1.6 | 0.00 | 0.00 | 0.00 | 82 | 1016.6 |
| 20260510031506 | 17 | 202 | 1.6 | 3.2 | 0.00 | 0.00 | 0.00 | 82 | 1016.7 |
| 20260510030507 | 17 | 202 | 0.0 | 0.0 | 0.00 | 0.00 | 0.00 | 82 | 1016.4 |
| 20260510023622 | 17 | 202 | 0.0 | 3.2 | 0.00 | 0.00 | 0.00 | 81 | 1016.5 |
| 20260510023505 | 17 | 202 | 0.0 | 3.2 | 0.00 | 0.00 | 0.00 | 81 | 1016.4 |
| 20260510022605 | 18 | 202 | 0.0 | 1.6 | 0.00 | 0.00 | 0.00 | 80 | 1016.4 |
| 20260510021606 | 18 | 202 | 0.0 | 0.0 | 0.00 | 0.00 | 0.00 | 78 | 1016.3 |
| 20260510020607 | 18 | 202 | 3.2 | 4.8 | 0.00 | 0.00 | 0.00 | 78 | 1016.1 |
| 20260510015621 | 18 | 202 | 3.2 | 4.8 | 0.00 | 0.00 | 0.00 | 78 | 1016.0 |
| 20260510014706 | 18 | 202 | 3.2 | 4.8 | 0.00 | 0.00 | 0.00 | 76 | 1016.0 |
| 20260510013706 | 18 | 180 | 0.0 | 3.2 | 0.00 | 0.00 | 0.00 | 77 | 1015.9 |
| 20260510012805 | 18 | 202 | 3.2 | 4.8 | 0.00 | 0.00 | 0.00 | 76 | 1015.7 |
| 20260510011821 | 19 | 190 | 1.6 | 4.8 | 0.00 | 0.00 | 0.00 | 75 | 1015.5 |
| 20260510010904 | 19 | 198 | 3.2 | 6.4 | 0.00 | 0.00 | 0.00 | 74 | 1015.3 |
| 20260510005905 | 20 | 202 | 1.6 | 3.2 | 0.00 | 0.00 | 0.00 | 73 | 1015.3 |
| 20260510005004 | 20 | 202 | 3.2 | 4.8 | 0.00 | 0.00 | 0.00 | 71 | 1014.9 |
| 20260510003105 | 20 | 204 | 6.4 | 8.0 | 0.00 | 0.00 | 0.00 | 69 | 1014.7 |
| 20260510002203 | 20 | 202 | 3.2 | 3.2 | 0.00 | 0.00 | 0.00 | 70 | 1014.5 |
| 20260510001107 | 21 | 202 | 6.4 | 9.7 | 0.00 | 0.00 | 0.00 | 68 | 1014.5 |
| 20260510000106 | 21 | 182 | 3.2 | 6.4 | 0.00 | 0.00 | 0.00 | 68 | 1014.3 |
| 20260510000020 | 21 | 190 | 3.2 | 6.4 | 0.00 | 0.00 | 0.00 | 67 | 1014.2 |
| 20260509235006 | 21 | 202 | 6.4 | 11.3 | 0.00 | 0.00 | 0.00 | 66 | 1014.2 |
| 20260509234005 | 21 | 185 | 4.8 | 6.4 | 0.00 | 0.00 | 0.00 | 66 | 1014.2 |
| 20260509233021 | 21 | 191 | 6.4 | 11.3 | 0.00 | 0.00 | 0.00 | 65 | 1014.2 |
| 20260509232006 | 22 | 202 | 8.0 | 11.3 | 0.00 | 0.00 | 0.00 | 63 | 1014.2 |
| 20260509231004 | 22 | 203 | 8.0 | 14.5 | 0.00 | 0.00 | 0.00 | 63 | 1013.8 |
| 20260509225104 | 22 | 200 | 8.0 | 11.3 | 0.00 | 0.00 | 0.00 | 62 | 1013.8 |
| 20260509222119 | 23 | 169 | 8.0 | 12.9 | 0.00 | 0.00 | 0.00 | 61 | 1013.5 |
| 20260509222004 | 23 | 177 | 8.0 | 12.9 | 0.00 | 0.00 | 0.00 | 60 | 1013.4 |
| 20260509221005 | 23 | 194 | 8.0 | 12.9 | 0.00 | 0.00 | 0.00 | 58 | 1013.4 |
| 20260509220004 | 23 | 158 | 3.2 | 11.3 | 0.00 | 0.00 | 0.00 | 59 | 1013.3 |
| 20260509215007 | 23 | 183 | 6.4 | 8.0 | 0.00 | 0.00 | 0.00 | 56 | 1013.3 |
| 20260509214104 | 24 | 193 | 9.7 | 12.9 | 0.00 | 0.00 | 0.00 | 54 | 1013.4 |
| 20260509213105 | 24 | 213 | 6.4 | 11.3 | 0.00 | 0.00 | 0.00 | 54 | 1013.3 |
| 20260509212203 | 24 | 193 | 8.0 | 12.9 | 0.00 | 0.00 | 0.00 | 54 | 1013.3 |
| 20260509211219 | 24 | 212 | 3.2 | 12.9 | 0.00 | 0.00 | 0.00 | 55 | 1013.3 |
| 20260509210304 | 24 | 267 | 3.2 | 8.0 | 0.00 | 0.00 | 0.00 | 54 | 1013.4 |
| 20260509205307 | 24 | 212 | 3.2 | 11.3 | 0.00 | 0.00 | 0.00 | 55 | 1013.3 |
| 20260509204403 | 23 | 189 | 9.7 | 16.1 | 0.00 | 0.00 | 0.00 | 57 | 1013.2 |
| 20260509203405 | 23 | 197 | 11.3 | 16.1 | 0.00 | 0.00 | 0.00 | 56 | 1013.1 |
| 20260509202420 | 24 | 250 | 4.8 | 16.1 | 0.00 | 0.00 | 0.00 | 54 | 1013.3 |
| 20260509201421 | 25 | 218 | 6.4 | 11.3 | 0.00 | 0.00 | 0.00 | 52 | 1013.4 |
| 20260509200506 | 24 | 177 | 6.4 | 11.3 | 0.00 | 0.00 | 0.00 | 55 | 1013.4 |
| 20260509195505 | 23 | 232 | 3.2 | 6.4 | 0.00 | 0.00 | 0.00 | 56 | 1013.5 |
| 20260509194519 | 23 | 206 | 4.8 | 16.1 | 0.00 | 0.00 | 0.00 | 58 | 1013.6 |
| 20260509193505 | 22 | 202 | 8.0 | 11.3 | 0.00 | 0.00 | 0.00 | 58 | 1013.6 |
| 20260509192505 | 22 | 200 | 9.7 | 12.9 | 0.00 | 0.00 | 0.00 | 58 | 1014.0 |
| 20260509192403 | 22 | 181 | 4.8 | 9.7 | 0.00 | 0.00 | 0.00 | 59 | 1013.7 |